Página principal
METAR-TAF:

METAR-TAF

Aeroportos :

Málaga, Espanha

latitude: 36-40N, longitude: 004-29W, altura: 16 m

Observação actual do tempo

O boletim foi feito há 18 minutos, às 05:30 UTC
Vento 4 kt de oes-noroeste
Temperatura 14°C
Humidade 77%
Pressão 1013 hPa
Visibilidade 10 km ou mais
sem nuvens abaixo de 1500 metros e sem cumulonimbus

METAR: LEMG 260530Z 30004KT CAVOK 14/10 Q1013 NOSIG

Hora: 07:48 (05:48 UTC)

Previsão

O boletim foi feito há 48 minutos, às 05:00 UTC
Previsão válida de 26 às 06 UTC a 27 às 06 UTC
Vento 7 kt de oes-noroeste
Visibilidade 10 km ou mais
Poucas nuvensa uma altura de 4000 ft
Tornando-se
de 26 às 08 UTC a 26 às 11 UTC
Vento 9 kt de sudeste
Tornando-se
de 26 às 19 UTC a 26 às 22 UTC
Vento 8 kt de oes-noroeste
Tornando-se
de 27 às 00 UTC a 27 às 02 UTC
Vento 3 kt com direcção variável

TAF: LEMG 260500Z 2606/2706 29007KT 9999 FEW040 TX25/2612Z TN15/2606Z BECMG 2608/2611 13009KT BECMG 2619/2622 29008KT BECMG 2700/2702 VRB03KT

Observações e previsões do tempo de mais de 4000 aeroportos (mensagens METAR e TAF).

As estações disponíveis são os pontos amarelos e vermelhos sobre o mapa.

Mova o rato sobre o mapa para ver o nome da estação.

Depois clique no ponto para visualizar as observações e previsões meteorológicas.

Para alterar o mapa : clique nos botões verdes com uma cruz preta para aumentar o zoom; no botão verde com uma pitada de zoom; ou nas setas verdes para mapas adjacentes.


METAR-TAF: